createdAt,value
2023-03-12T00:01:33.999Z,99.20
2023-03-12T00:04:05.557Z,98.66
2023-03-12T00:06:34.631Z,98.62
2023-03-12T00:09:03.973Z,98.10
2023-03-12T00:11:33.552Z,97.78
2023-03-12T00:14:04.665Z,98.54
2023-03-12T00:16:34.706Z,98.07
2023-03-12T00:19:04.373Z,98.01
2023-03-12T00:21:32.715Z,98.19
2023-03-12T00:24:00.937Z,98.56
2023-03-12T00:26:40.210Z,97.83
2023-03-12T00:29:08.332Z,98.03
2023-03-12T00:31:40.196Z,98.01
2023-03-12T00:34:11.251Z,98.88
2023-03-12T00:36:40.780Z,98.64
2023-03-12T00:39:10.262Z,98.93
2023-03-12T00:41:38.556Z,98.59
2023-03-12T00:44:10.384Z,98.73
2023-03-12T00:46:40.913Z,98.41
2023-03-12T00:49:11.765Z,99.79
2023-03-12T00:51:39.856Z,99.20
2023-03-12T00:54:10.533Z,100.00
2023-03-12T00:56:38.865Z,99.80
2023-03-12T00:59:06.993Z,100.00
2023-03-12T01:01:35.298Z,99.55
2023-03-12T01:04:11.809Z,99.07
2023-03-12T01:06:41.952Z,98.87
2023-03-12T01:09:11.008Z,98.89
2023-03-12T01:11:40.072Z,98.77
2023-03-12T01:14:12.104Z,99.05
2023-03-12T01:16:40.342Z,99.88
2023-03-12T01:19:08.424Z,99.21
2023-03-12T01:21:36.547Z,100.00
2023-03-12T01:24:09.780Z,100.00
2023-03-12T01:26:37.894Z,100.00
2023-03-12T01:29:06.042Z,100.00
2023-03-12T01:31:34.263Z,100.00
2023-03-12T01:34:03.034Z,100.00
2023-03-12T01:36:32.239Z,100.00
2023-03-12T01:39:01.289Z,100.00
2023-03-12T01:41:33.319Z,100.00
2023-03-12T01:44:04.065Z,100.00
2023-03-12T01:46:34.403Z,100.00
2023-03-12T01:49:08.357Z,100.00
2023-03-12T01:51:42.914Z,100.00
2023-03-12T01:54:16.192Z,100.00
2023-03-12T01:56:47.862Z,100.00
2023-03-12T01:59:21.460Z,100.00
2023-03-12T02:01:55.763Z,100.00
2023-03-12T02:04:27.629Z,100.00
2023-03-12T02:07:03.334Z,100.00
2023-03-12T02:09:33.570Z,100.00
2023-03-12T02:12:09.513Z,100.00
2023-03-12T02:14:38.184Z,100.00
2023-03-12T02:17:07.107Z,100.00
2023-03-12T02:19:44.355Z,100.00
2023-03-12T02:22:13.452Z,100.00
2023-03-12T02:24:47.545Z,100.00
2023-03-12T02:27:19.805Z,100.00
2023-03-12T02:29:48.524Z,100.00
2023-03-12T02:32:22.142Z,100.00
2023-03-12T02:34:50.825Z,100.00
2023-03-12T02:37:19.906Z,100.00
2023-03-12T02:39:55.234Z,100.00
2023-03-12T02:42:33.966Z,100.00
2023-03-12T02:45:02.899Z,100.00
2023-03-12T02:47:31.457Z,100.00
2023-03-12T02:49:59.626Z,100.00
2023-03-12T02:52:38.079Z,100.00
2023-03-12T02:55:07.081Z,100.00
2023-03-12T02:57:37.835Z,100.00
2023-03-12T03:00:07.728Z,100.00
2023-03-12T03:02:35.884Z,100.00
2023-03-12T03:05:04.185Z,99.83
2023-03-12T03:07:36.005Z,99.96
2023-03-12T03:10:05.370Z,99.43
2023-03-12T03:12:39.404Z,99.02
2023-03-12T03:15:08.914Z,98.38
2023-03-12T03:17:37.447Z,98.08
2023-03-12T03:20:08.545Z,97.45
2023-03-12T03:22:36.663Z,97.82
2023-03-12T03:25:06.498Z,97.80
2023-03-12T03:27:36.133Z,97.61
2023-03-12T03:30:05.898Z,97.41
2023-03-12T03:32:36.944Z,97.29
2023-03-12T03:35:05.344Z,97.33
2023-03-12T03:37:33.440Z,97.16
2023-03-12T03:40:01.748Z,97.78
2023-03-12T03:42:30.156Z,97.22
2023-03-12T03:45:00.506Z,96.33
2023-03-12T03:47:28.617Z,96.38
2023-03-12T03:49:57.087Z,95.74
2023-03-12T03:52:25.262Z,94.74
2023-03-12T03:54:54.130Z,94.49
2023-03-12T03:57:22.208Z,93.82
2023-03-12T03:59:54.497Z,94.02
2023-03-12T04:02:24.387Z,93.62
2023-03-12T04:04:52.841Z,92.90
2023-03-12T04:07:21.392Z,92.12
2023-03-12T04:09:52.066Z,91.89
2023-03-12T04:12:20.457Z,91.70
2023-03-12T04:14:49.020Z,91.51
2023-03-12T04:17:17.101Z,90.77
2023-03-12T04:19:46.899Z,90.29
2023-03-12T04:22:14.996Z,89.62
2023-03-12T04:24:43.587Z,89.24
2023-03-12T04:27:11.859Z,88.98
2023-03-12T04:30:02.806Z,89.00
2023-03-12T04:32:30.902Z,88.82
2023-03-12T04:35:00.466Z,88.77
2023-03-12T04:37:28.731Z,88.55
2023-03-12T04:39:56.835Z,88.03
2023-03-12T04:42:24.914Z,87.33
2023-03-12T04:45:02.407Z,87.70
2023-03-12T04:47:32.368Z,87.92
2023-03-12T04:50:05.195Z,87.63
2023-03-12T04:52:33.495Z,87.36
2023-03-12T04:55:01.643Z,87.30
2023-03-12T04:57:29.874Z,86.32
2023-03-12T04:59:58.150Z,86.20
2023-03-12T05:02:26.390Z,85.58
2023-03-12T05:04:57.303Z,84.57
2023-03-12T05:07:26.835Z,83.60
2023-03-12T05:09:58.339Z,84.13
2023-03-12T05:12:26.508Z,83.35
2023-03-12T05:14:54.595Z,82.75
2023-03-12T05:17:23.277Z,82.69
2023-03-12T05:19:51.363Z,82.30
2023-03-12T05:22:20.142Z,82.23
2023-03-12T05:24:52.428Z,81.10
2023-03-12T05:27:21.484Z,80.94
2023-03-12T05:29:49.719Z,81.00
2023-03-12T05:32:17.944Z,79.94
2023-03-12T05:34:46.128Z,79.59
2023-03-12T05:37:38.006Z,79.04
2023-03-12T05:40:10.579Z,78.87
2023-03-12T05:42:39.026Z,79.32
2023-03-12T05:45:25.428Z,78.32
2023-03-12T05:47:53.600Z,78.60
2023-03-12T05:50:21.930Z,77.89
2023-03-12T05:52:50.455Z,77.89
2023-03-12T05:55:20.184Z,78.44
2023-03-12T05:57:48.439Z,78.60
2023-03-12T06:00:17.841Z,78.02
2023-03-12T06:02:45.959Z,78.22
2023-03-12T06:05:14.490Z,77.96
2023-03-12T06:07:42.627Z,78.60
2023-03-12T06:10:13.861Z,78.74
2023-03-12T06:12:51.513Z,78.48
2023-03-12T06:15:19.918Z,78.65
2023-03-12T06:17:48.392Z,78.86
2023-03-12T06:20:16.934Z,78.95
2023-03-12T06:22:45.025Z,79.84
2023-03-12T06:25:13.184Z,80.25
2023-03-12T06:27:41.864Z,80.35
2023-03-12T06:30:12.900Z,79.12
2023-03-12T06:32:47.811Z,78.40
2023-03-12T06:35:16.401Z,77.70
2023-03-12T06:37:44.567Z,77.25
2023-03-12T06:40:15.675Z,77.59
2023-03-12T06:42:43.962Z,77.06
2023-03-12T06:45:13.812Z,76.94
2023-03-12T06:47:47.879Z,76.55
2023-03-12T06:50:16.106Z,76.42
2023-03-12T06:52:47.967Z,75.14
2023-03-12T06:55:17.925Z,75.28
2023-03-12T06:57:46.063Z,75.74
2023-03-12T07:00:16.372Z,75.90
2023-03-12T07:02:44.514Z,76.30
2023-03-12T07:05:12.738Z,76.74
2023-03-12T07:07:43.568Z,76.38
2023-03-12T07:10:13.356Z,76.07
2023-03-12T07:12:43.144Z,75.31
2023-03-12T07:15:11.955Z,74.29
2023-03-12T07:17:44.313Z,74.83
2023-03-12T07:20:16.491Z,73.90
2023-03-12T07:22:47.782Z,74.28
2023-03-12T07:25:18.560Z,74.12
2023-03-12T07:27:47.103Z,73.96
2023-03-12T07:30:15.535Z,73.90
2023-03-12T07:32:45.063Z,73.27
2023-03-12T07:35:13.263Z,73.12
2023-03-12T07:37:41.703Z,72.78
2023-03-12T07:40:11.344Z,72.32
2023-03-12T07:42:39.574Z,71.76
2023-03-12T07:45:09.473Z,71.17
2023-03-12T07:47:42.353Z,69.86
2023-03-12T07:50:14.345Z,70.57
2023-03-12T07:52:42.833Z,70.36
2023-03-12T07:55:12.528Z,69.90
2023-03-12T07:57:41.004Z,69.33
2023-03-12T08:00:10.930Z,69.30
2023-03-12T08:02:40.156Z,69.40
2023-03-12T08:05:09.332Z,69.21
2023-03-12T08:07:38.950Z,68.41
2023-03-12T08:10:09.922Z,68.25
2023-03-12T08:12:40.937Z,67.90
2023-03-12T08:15:10.172Z,67.01
2023-03-12T08:17:38.292Z,66.99
2023-03-12T08:20:09.990Z,66.69
2023-03-12T08:22:40.256Z,67.06
2023-03-12T08:25:09.504Z,67.34
2023-03-12T08:27:38.110Z,67.84
2023-03-12T08:30:07.606Z,67.51
2023-03-12T08:32:36.018Z,68.53
2023-03-12T08:35:05.974Z,68.60
2023-03-12T08:37:34.562Z,67.97
2023-03-12T08:40:09.213Z,67.04
2023-03-12T08:42:37.390Z,67.42
2023-03-12T08:45:06.434Z,66.20
2023-03-12T08:47:34.742Z,66.71
2023-03-12T08:50:03.032Z,66.15
2023-03-12T08:52:33.651Z,66.36
2023-03-12T08:55:03.165Z,66.85
2023-03-12T08:57:31.263Z,67.29
2023-03-12T08:59:59.613Z,66.55
2023-03-12T09:02:30.683Z,65.93
2023-03-12T09:04:58.758Z,66.42
2023-03-12T09:07:35.431Z,66.00
2023-03-12T09:10:05.993Z,66.34
2023-03-12T09:12:35.590Z,65.63
2023-03-12T09:15:05.103Z,64.98
2023-03-12T09:17:33.554Z,64.59
2023-03-12T09:20:01.914Z,64.65
2023-03-12T09:22:33.250Z,65.42
2023-03-12T09:25:01.360Z,64.11
2023-03-12T09:27:31.185Z,64.49
2023-03-12T09:30:01.165Z,65.10
2023-03-12T09:32:29.845Z,63.48
2023-03-12T09:34:58.100Z,63.63
2023-03-12T09:37:26.337Z,63.57
2023-03-12T09:39:55.197Z,62.88
2023-03-12T09:42:26.921Z,64.50
2023-03-12T09:45:04.933Z,63.48
2023-03-12T09:47:40.655Z,63.21
2023-03-12T09:50:21.611Z,64.22
2023-03-12T09:52:58.166Z,64.50
2023-03-12T09:55:29.000Z,63.16
2023-03-12T09:57:59.453Z,62.69
2023-03-12T10:00:34.494Z,63.35
2023-03-12T10:03:35.809Z,63.65
2023-03-12T10:06:12.527Z,62.43
2023-03-12T10:09:08.787Z,61.45
2023-03-12T10:11:51.083Z,61.93
2023-03-12T10:14:30.609Z,61.41
2023-03-12T10:17:26.808Z,60.78
2023-03-12T10:20:08.043Z,61.33
2023-03-12T10:22:51.068Z,61.46
2023-03-12T10:25:28.479Z,60.21
2023-03-12T10:28:12.941Z,60.35
2023-03-12T10:30:44.056Z,60.19
2023-03-12T10:33:18.390Z,60.07
2023-03-12T10:35:46.892Z,60.05
2023-03-12T10:38:21.796Z,60.02
2023-03-12T10:40:52.725Z,59.23
2023-03-12T10:43:20.932Z,59.02
2023-03-12T10:46:00.288Z,58.15
2023-03-12T10:48:35.777Z,59.29
2023-03-12T10:51:05.986Z,57.32
2023-03-12T10:53:35.711Z,57.92
2023-03-12T10:56:07.009Z,58.42
2023-03-12T10:58:38.311Z,58.43
2023-03-12T11:01:08.563Z,58.07
2023-03-12T11:03:39.355Z,57.23
2023-03-12T11:06:09.140Z,56.92
2023-03-12T11:08:38.713Z,58.36
2023-03-12T11:11:08.751Z,58.49
2023-03-12T11:13:40.765Z,58.60
2023-03-12T11:16:34.281Z,58.71
2023-03-12T11:19:07.620Z,58.96
2023-03-12T11:21:38.374Z,58.77
2023-03-12T11:24:10.073Z,59.79
2023-03-12T11:26:52.420Z,59.96
2023-03-12T11:29:31.526Z,60.20
2023-03-12T11:32:05.927Z,58.99
2023-03-12T11:34:39.438Z,59.12
2023-03-12T11:37:14.057Z,60.36
2023-03-12T11:39:57.682Z,58.69
2023-03-12T11:42:39.609Z,59.95
2023-03-12T11:45:20.135Z,58.96
2023-03-12T11:48:05.139Z,58.19
2023-03-12T11:50:48.003Z,57.54
2023-03-12T11:53:32.598Z,56.85
2023-03-12T11:59:24.389Z,57.71
2023-03-12T12:02:05.817Z,58.56
2023-03-12T12:05:14.000Z,57.72
2023-03-12T12:07:56.012Z,57.83
2023-03-12T12:10:32.741Z,58.88
2023-03-12T12:13:09.483Z,57.87
2023-03-12T12:15:43.727Z,56.65
2023-03-12T12:18:40.468Z,57.03
2023-03-12T12:21:24.744Z,57.05
2023-03-12T12:24:03.565Z,55.63
2023-03-12T12:26:47.550Z,56.41
2023-03-12T12:29:31.123Z,54.85
2023-03-12T12:32:00.428Z,54.81
2023-03-12T12:34:54.594Z,53.06
2023-03-12T12:37:32.867Z,53.75
2023-03-12T12:40:13.829Z,53.02
2023-03-12T12:42:52.354Z,53.24
2023-03-12T12:45:22.512Z,55.83
2023-03-12T12:47:55.099Z,55.83
2023-03-12T12:50:28.253Z,56.47
2023-03-12T12:53:00.866Z,55.69
2023-03-12T12:55:47.171Z,55.81
2023-03-12T12:58:23.704Z,56.67
2023-03-12T13:00:54.686Z,56.57
2023-03-12T13:03:25.847Z,55.89
2023-03-12T13:06:00.335Z,55.52
2023-03-12T13:09:02.997Z,55.28
2023-03-12T13:11:41.981Z,53.90
2023-03-12T13:14:37.095Z,53.71
2023-03-12T13:17:25.786Z,53.89
2023-03-12T13:20:01.701Z,51.80
2023-03-12T13:22:46.866Z,51.84
2023-03-12T13:25:28.166Z,51.20
2023-03-12T13:28:32.354Z,51.71
2023-03-12T13:31:00.704Z,50.82
2023-03-12T13:33:42.221Z,49.11
2023-03-12T13:36:23.795Z,49.90
2023-03-12T13:38:59.357Z,48.89
2023-03-12T13:41:37.395Z,48.87
2023-03-12T13:44:38.604Z,48.53
2023-03-12T13:47:22.398Z,48.39
2023-03-12T13:49:57.052Z,47.13
2023-03-12T13:52:27.551Z,48.18
2023-03-12T13:55:03.034Z,48.25
2023-03-12T13:57:40.253Z,48.83
2023-03-12T14:00:19.416Z,47.79
2023-03-12T14:02:54.020Z,47.49
2023-03-12T14:05:23.802Z,47.40
2023-03-12T14:08:16.340Z,47.88
2023-03-12T14:11:03.636Z,47.64
2023-03-12T14:13:49.050Z,47.67
2023-03-12T14:16:27.285Z,47.09
2023-03-12T14:18:55.839Z,48.66
2023-03-12T14:21:25.926Z,48.16
2023-03-12T14:23:58.651Z,48.09
2023-03-12T14:26:29.933Z,47.57
2023-03-12T14:29:01.900Z,47.72
2023-03-12T14:31:32.670Z,49.13
2023-03-12T14:34:05.336Z,49.84
2023-03-12T14:36:40.187Z,49.59
2023-03-12T14:39:23.842Z,49.86
2023-03-12T14:41:57.018Z,50.46
2023-03-12T14:44:27.175Z,51.26
2023-03-12T14:47:01.634Z,52.42
2023-03-12T14:49:31.292Z,51.50
2023-03-12T14:51:59.634Z,50.25
2023-03-12T14:54:29.606Z,50.95
2023-03-12T14:56:58.301Z,51.82
2023-03-12T14:59:31.138Z,51.28
2023-03-12T15:02:05.554Z,50.40
2023-03-12T15:04:35.944Z,51.61
2023-03-12T15:07:07.428Z,52.25
2023-03-12T15:09:37.898Z,51.96
2023-03-12T15:12:09.918Z,52.55
2023-03-12T15:14:42.839Z,52.58
2023-03-12T15:17:17.980Z,52.72
2023-03-12T15:19:47.479Z,53.13
2023-03-12T15:22:18.978Z,53.89
2023-03-12T15:24:47.068Z,55.09
2023-03-12T15:27:23.690Z,53.36
2023-03-12T15:29:52.281Z,53.61
2023-03-12T15:32:25.002Z,54.07
2023-03-12T15:34:54.759Z,53.89
2023-03-12T15:37:29.730Z,53.48
2023-03-12T15:39:59.024Z,54.81
2023-03-12T15:42:30.007Z,55.04
2023-03-12T15:45:04.084Z,55.13
2023-03-12T15:47:40.796Z,55.16
2023-03-12T15:50:14.279Z,54.55
2023-03-12T15:52:58.963Z,54.58
2023-03-12T15:55:30.704Z,55.13
2023-03-12T15:58:00.111Z,56.09
2023-03-12T16:00:30.526Z,55.74
2023-03-12T16:03:01.205Z,57.17
2023-03-12T16:05:32.565Z,57.02
2023-03-12T16:08:14.377Z,56.93
2023-03-12T16:10:43.919Z,57.18
2023-03-12T16:13:15.949Z,57.44
2023-03-12T16:15:46.229Z,56.40
2023-03-12T16:18:20.009Z,56.88
2023-03-12T16:20:49.215Z,57.12
2023-03-12T16:23:17.679Z,56.51
2023-03-12T16:25:48.586Z,56.31
2023-03-12T16:28:20.777Z,55.10
2023-03-12T16:30:48.981Z,55.77
2023-03-12T16:33:20.572Z,55.99
2023-03-12T16:35:49.192Z,55.93
2023-03-12T16:38:17.684Z,56.82
2023-03-12T16:40:48.641Z,55.78
2023-03-12T16:43:20.815Z,54.04
2023-03-12T16:45:50.440Z,54.96
2023-03-12T16:48:23.266Z,54.53
2023-03-12T16:50:53.145Z,53.76
2023-03-12T16:53:21.920Z,53.07
2023-03-12T16:55:52.403Z,53.61
2023-03-12T16:58:22.551Z,53.46
2023-03-12T17:00:52.298Z,53.06
2023-03-12T17:03:28.635Z,51.08
2023-03-12T17:05:56.805Z,52.67
2023-03-12T17:08:25.334Z,51.84
2023-03-12T17:10:53.827Z,52.74
2023-03-12T17:13:24.407Z,52.77
2023-03-12T17:15:53.637Z,52.56
2023-03-12T17:18:24.032Z,52.18
2023-03-12T17:20:52.375Z,51.91
2023-03-12T17:23:20.849Z,53.27
2023-03-12T17:25:49.534Z,53.51
2023-03-12T17:28:17.712Z,53.00
2023-03-12T17:30:47.464Z,52.78
2023-03-12T17:33:18.249Z,52.80
2023-03-12T17:35:56.792Z,53.24
2023-03-12T17:38:25.580Z,53.56
2023-03-12T17:40:54.191Z,53.32
2023-03-12T17:43:22.460Z,52.54
2023-03-12T17:45:51.240Z,51.82
2023-03-12T17:48:20.067Z,51.53
2023-03-12T17:50:50.114Z,51.23
2023-03-12T17:53:18.234Z,50.67
2023-03-12T17:55:47.352Z,50.85
2023-03-12T17:58:15.458Z,50.63
2023-03-12T18:00:43.729Z,50.00
2023-03-12T18:03:11.954Z,50.38
2023-03-12T18:05:43.042Z,50.18
2023-03-12T18:08:12.797Z,50.09
2023-03-12T18:10:41.088Z,50.38
2023-03-12T18:13:09.258Z,48.60
2023-03-12T18:15:37.582Z,49.57
2023-03-12T18:18:06.192Z,49.13
2023-03-12T18:20:39.108Z,49.19
2023-03-12T18:23:12.354Z,49.19
2023-03-12T18:25:40.597Z,49.33
2023-03-12T18:28:09.111Z,49.15
2023-03-12T18:30:37.352Z,48.76
2023-03-12T18:33:08.403Z,48.89
2023-03-12T18:38:20.665Z,48.35
2023-03-12T18:40:50.011Z,48.80
2023-03-12T18:43:20.757Z,48.42
2023-03-12T18:45:51.381Z,47.99
2023-03-12T18:48:19.567Z,48.51
2023-03-12T18:50:48.097Z,49.04
2023-03-12T18:53:16.612Z,49.17
2023-03-12T18:55:53.927Z,49.20
2023-03-12T18:58:22.870Z,48.84
2023-03-12T19:00:52.725Z,49.20
2023-03-12T19:03:21.596Z,48.78
2023-03-12T19:05:50.401Z,48.85
2023-03-12T19:08:24.206Z,49.15
2023-03-12T19:10:54.432Z,50.04
2023-03-12T19:13:23.147Z,50.96
2023-03-12T19:15:51.434Z,52.06
2023-03-12T19:18:20.054Z,53.44
2023-03-12T19:20:48.939Z,54.26
2023-03-12T19:23:21.967Z,54.25
2023-03-12T19:25:50.305Z,55.80
2023-03-12T19:28:20.360Z,55.89
2023-03-12T19:30:48.974Z,56.94
2023-03-12T19:33:17.274Z,57.71
2023-03-12T19:35:45.644Z,58.34
2023-03-12T19:38:19.415Z,58.94
2023-03-12T19:40:50.451Z,59.41
2023-03-12T19:43:38.516Z,60.16
2023-03-12T19:46:07.120Z,60.27
2023-03-12T19:48:35.396Z,60.60
2023-03-12T19:51:10.450Z,60.57
2023-03-12T19:53:40.315Z,61.20
2023-03-12T19:56:09.309Z,61.32
2023-03-12T19:58:38.907Z,61.67
2023-03-12T20:01:06.990Z,61.87
2023-03-12T20:03:43.126Z,62.20
2023-03-12T20:06:13.090Z,62.39
2023-03-12T20:08:41.197Z,62.80
2023-03-12T20:11:10.961Z,62.52
2023-03-12T20:13:40.616Z,62.71
2023-03-12T20:16:11.694Z,62.29
2023-03-12T20:18:39.803Z,62.77
2023-03-12T20:21:11.378Z,63.03
2023-03-12T20:23:39.669Z,62.82
2023-03-12T20:26:08.449Z,63.02
2023-03-12T20:28:37.154Z,63.35
2023-03-12T20:31:10.985Z,63.22
2023-03-12T20:33:39.484Z,62.86
2023-03-12T20:36:08.766Z,62.84
2023-03-12T20:38:37.000Z,63.26
2023-03-12T20:41:06.019Z,62.96
2023-03-12T20:43:34.224Z,62.64
2023-03-12T20:46:02.540Z,62.90
2023-03-12T20:48:32.467Z,62.99
2023-03-12T20:51:00.745Z,62.91
2023-03-12T20:53:29.432Z,63.17
2023-03-12T20:55:58.690Z,63.58
2023-03-12T20:58:26.799Z,63.02
2023-03-12T21:00:54.909Z,63.47
2023-03-12T21:03:24.808Z,63.32
2023-03-12T21:05:58.929Z,63.05
2023-03-12T21:08:30.060Z,62.65
2023-03-12T21:10:58.162Z,63.07
2023-03-12T21:13:26.996Z,63.19
2023-03-12T21:15:55.119Z,62.68
2023-03-12T21:18:24.053Z,63.26
2023-03-12T21:20:52.593Z,63.05
2023-03-12T21:23:25.151Z,63.91
2023-03-12T21:25:59.598Z,63.43
2023-03-12T21:28:29.247Z,63.81
2023-03-12T21:30:57.844Z,63.08
2023-03-12T21:33:26.271Z,63.07
2023-03-12T21:35:54.917Z,63.01
2023-03-12T21:38:24.513Z,63.02
2023-03-12T21:40:54.276Z,63.32
2023-03-12T21:43:24.504Z,63.88
2023-03-12T21:45:52.766Z,64.07
2023-03-12T21:48:21.412Z,63.49
2023-03-12T21:50:49.550Z,64.01
2023-03-12T21:53:23.820Z,63.57
2023-03-12T21:55:58.188Z,63.09
2023-03-12T21:58:26.883Z,63.52
2023-03-12T22:01:04.859Z,63.22
2023-03-12T22:03:36.611Z,63.95
2023-03-12T22:06:05.260Z,63.50
2023-03-12T22:08:36.464Z,63.38
2023-03-12T22:11:07.664Z,63.53
2023-03-12T22:13:38.809Z,63.77
2023-03-12T22:16:09.179Z,64.26
2023-03-12T22:18:39.904Z,64.41
2023-03-12T22:21:08.717Z,64.95
2023-03-12T22:23:37.959Z,64.47
2023-03-12T22:26:08.405Z,64.05
2023-03-12T22:28:36.897Z,64.08
2023-03-12T22:31:07.369Z,64.42
2023-03-12T22:33:36.833Z,64.67
2023-03-12T22:36:08.528Z,64.76
2023-03-12T22:38:38.170Z,64.71
2023-03-12T22:41:16.676Z,64.98
2023-03-12T22:43:45.722Z,65.05
2023-03-12T22:46:16.159Z,65.54
2023-03-12T22:48:44.472Z,65.49
2023-03-12T22:51:13.401Z,65.58
2023-03-12T22:53:41.668Z,65.73
2023-03-12T22:56:11.898Z,65.50
2023-03-12T22:58:42.455Z,65.34
2023-03-12T23:01:12.552Z,65.28
2023-03-12T23:03:42.516Z,65.84
2023-03-12T23:06:11.899Z,65.79
2023-03-12T23:08:40.379Z,66.35
2023-03-12T23:11:09.658Z,65.72
2023-03-12T23:13:40.401Z,65.84
2023-03-12T23:16:12.955Z,66.32
2023-03-12T23:18:43.064Z,66.19
2023-03-12T23:21:12.987Z,66.37
2023-03-12T23:23:42.215Z,66.24
2023-03-12T23:26:18.869Z,66.38
2023-03-12T23:28:47.647Z,66.50
2023-03-12T23:31:21.339Z,66.22
2023-03-12T23:33:49.650Z,66.38
2023-03-12T23:36:20.356Z,66.79
2023-03-12T23:38:49.188Z,67.18
2023-03-12T23:41:19.792Z,67.02
2023-03-12T23:43:48.203Z,67.30
2023-03-12T23:46:18.017Z,67.68
2023-03-12T23:48:47.828Z,68.23
2023-03-12T23:51:18.031Z,68.29
2023-03-12T23:53:48.190Z,68.29
2023-03-12T23:56:21.779Z,68.48
2023-03-12T23:58:51.096Z,68.21
